WEATHER DATA

YESTERDAY
Time Temp. Dewp. Hum. Wind dir Wind speed Wind gust Bar. 1h Prec. 24h Prec.
00:01 17 12.3 74 239 0.3 0.8 1018 0.0000 0.0000
00:10 16.8 12.3 75 215 0.3 0.8 1018 0.0000 0.0000
00:21 16.6 12.2 75 225 0.3 0.8 1017.9 0.0000 0.0000
00:31 16.4 12.2 76 220 0.3 0.8 1017.8 0.0000 0.0000
00:40 16.3 12.1 76 228 0.3 0.8 1017.7 0.0000 0.0000
00:51 16.1 11.9 76 210 0.3 1.1 1017.7 0.0000 0.0000
01:01 15.8 11.8 77 225 0.6 1.1 1017.5 0.0000 0.0000
01:11 15.7 11.7 77 228 0.3 1.4 1017.5 0.0000 0.0000
01:20 15.5 11.7 78 225 0.6 1.1 1017.6 0.0000 0.0000
01:31 15.4 11.6 78 228 0.6 1.4 1017.7 0.0000 0.0000
01:41 15.2 11.4 78 225 0.3 1.4 1017.5 0.0000 0.0000
01:51 15.2 11.4 78 135 0.3 0.6 1017.3 0.0000 0.0000
02:01 15.1 11.3 78 90 0.3 0.6 1017.3 0.0000 0.0000
02:11 15 11.2 78 90 0.3 0.6 1017.1 0.0000 0.0000
02:21 14.9 11.1 78 90 0.3 0.6 1017.2 0.0000 0.0000
02:31 14.8 11.2 79 135 0.3 0.6 1017.3 0.0000 0.0000
02:42 14.8 11.4 80 219 0.3 0.8 1017.2 0.0000 0.0000
02:52 14.8 11.4 80 174 0.3 0.8 1017.2 0.0000 0.0000
03:02 14.8 11.4 80 219 0.3 0.8 1017.1 0.0000 0.0000
03:12 14.8 11.4 80 198 0.3 0.6 1017 0.0000 0.0000
03:22 14.8 11.4 80 135 0.3 0.6 1016.7 0.0000 0.0000
03:32 14.8 11.4 80 90 0.3 0.6 1016.5 0.0000 0.0000
03:42 14.8 11.4 80 0 0.3 1016.4 0.0000 0.0000
03:52 14.8 11.4 80 0 0.6 1016.3 0.0000 0.0000
04:02 14.8 11.6 81 0 0.6 1016.2 0.0000 0.0000
04:12 14.8 11.6 81 135 0.3 0.6 1016.1 0.0000 0.0000
04:22 14.8 11.6 81 0 0.6 1016.1 0.0000 0.0000
04:33 14.8 11.6 81 90 0.3 0.6 1016 0.0000 0.0000
04:42 14.8 11.6 81 135 0.3 0.6 1015.9 0.0000 0.0000
04:52 14.9 11.9 82 0 0.6 1015.9 0.0000 0.0000
05:03 14.9 11.9 82 0 0.6 1015.9 0.0000 0.0000
05:13 14.9 11.9 82 0 0.6 1016 0.0000 0.0000
05:22 14.9 11.9 82 0 0.6 1015.9 0.0000 0.0000
05:33 14.9 11.9 82 90 0.3 0.6 1015.8 0.0000 0.0000
05:43 15 12 82 0 0.6 1015.7 0.0000 0.0000
05:53 15 12.1 83 90 0.3 0.6 1015.8 0.0000 0.0000
06:02 15 12.1 83 0 0.6 1015.7 0.0000 0.0000
06:13 15.1 12.2 83 0 0.3 1015.6 0.0000 0.0000
06:23 15.1 12.2 83 0 0.6 1015.6 0.0000 0.0000
06:33 15.1 12.4 84 90 0.3 0.6 1015.3 0.0000 0.0000
06:43 15.2 12.5 84 90 0.3 0.6 1015.2 0.0000 0.0000
06:53 15.2 12.5 84 90 0.3 0.6 1015.1 0.0000 0.0000
07:03 15.2 12.5 84 90 0.3 0.6 1015.1 0.0000 0.0000
07:13 15.3 12.6 84 90 0.3 0.6 1015 0.0000 0.0000
07:23 15.3 12.6 84 90 0.3 0.6 1014.8 0.0000 0.0000
07:33 15.4 12.7 84 90 0.3 0.6 1014.8 0.0000 0.0000
07:43 15.5 12.8 84 153 0.3 0.6 1014.9 0.0000 0.0000
07:54 15.6 12.9 84 173 0.3 0.6 1014.9 0.0000 0.0000
08:04 15.7 13 84 215 0.3 0.8 1014.8 0.0000 0.0000
08:14 15.8 13.3 85 225 0.3 0.8 1014.9 0.0000 0.0000
08:23 16 13.5 85 203 0.3 0.6 1014.8 0.0000 0.0000
08:34 16.1 13.6 85 149 0.3 0.6 1014.9 0.0000 0.0000
08:44 16.3 13.8 85 161 0.3 0.8 1014.8 0.0000 0.0000
08:54 16.7 14 84 161 0.3 0.6 1014.7 0.0000 0.0000
09:03 17.1 14.2 83 0 0.3 0.8 1014.6 0.0000 0.0000
09:14 17.5 13.8 79 54 0.3 1.1 1014.9 0.0000 0.0000
09:24 17.9 13.6 76 0.3 1.4 1015 0.0000 0.0000
09:34 18.1 13.4 74 45 0.3 0.8 1014.9 0.0000 0.0000
09:45 18.3 13.4 73 45 0.3 0.8 1014.8 0.0000 0.0000
09:54 18.6 13.5 72 59 0.3 0.6 1014.9 0.0000 0.0000
10:04 18.8 13.7 72 45 0.3 0.8 1014.8 0.0000 0.0000
10:14 19.2 13.6 70 35 0.3 1.7 1014.8 0.0000 0.0000
10:25 19.5 13.7 69 0 0.3 0.8 1014.7 0.0000 0.0000
10:34 19.8 13.7 68 14 0.3 1.4 1014.7 0.0000 0.0000
10:44 20.1 14 68 63 0.6 4.2 1014.6 0.0000 0.0000
10:55 20.3 14.2 68 18 0.3 1.4 1014.7 0.0000 0.0000
11:05 20.5 14.2 67 45 0.3 1.1 1014.4 0.0000 0.0000
11:14 20.7 14.4 67 29 0.3 0.8 1014.4 0.0000 0.0000
11:24 21 14.6 67 0.3 1.1 1014.3 0.0000 0.0000
11:35 21.3 14.5 65 5 0.6 1.9 1014.1 0.0000 0.0000
11:45 21.6 14.5 64 250 1.1 5 1014.4 0.0000 0.0000
11:55 21.8 14.7 64 352 0.6 1.4 1014.3 0.0000 0.0000
12:05 21.9 14.5 63 315 0.6 2.5 1014.3 0.0000 0.0000
12:15 22.1 15 64 237 0.8 2.8 1014.2 0.0000 0.0000
12:25 22.2 14.8 63 225 0.6 1.7 1014 0.0000 0.0000
12:35 22.3 14.9 63 225 1.1 2.8 1013.8 0.0000 0.0000
12:45 22.4 14.8 62 329 0.6 1.7 1013.9 0.0000 0.0000
12:56 22.8 15.1 62 231 1.1 4.2 1013.8 0.0000 0.0000
13:06 23.1 14.7 59 221 1.4 4.4 1013.8 0.0000 0.0000
13:19 23.7 15 58 215 1.1 7.5 1013.5 0.0000 0.0000
13:29 24 15 57 235 0.8 2.8 1013.7 0.0000 0.0000
13:31 24 15 57 225 0.8 5.8 1013.8 0.0000 0.0000
13:41 23.9 14.9 57 226 1.4 4.4 1013.7 0.0000 0.0000
13:51 23.7 15 58 226 1.1 5 1013.8 0.0000 0.0000
14:01 23.7 15 58 225 0.8 2.8 1013.7 0.0000 0.0000
14:11 23.8 14.5 56 232 1.4 4.7 1013.7 0.0000 0.0000
14:21 23.7 14.4 56 222 0.8 3.3 1013.7 0.0000 0.0000
14:31 23.7 14.1 55 249 0.8 3.1 1013.7 0.0000 0.0000
14:43 24 14.4 55 232 1.1 6.7 1013.6 0.0000 0.0000
14:55 24 14.1 54 296 0.8 2.2 1013.4 0.0000 0.0000
15:05 23.9 14 54 247 0.8 2.8 1013.4 0.0000 0.0000
15:16 23.8 14.2 55 243 0.8 2.5 1013.7 0.0000 0.0000
15:26 23.6 14.3 56 240 1.4 4.4 1013.8 0.0000 0.0000
15:36 23.4 14.1 56 220 1.4 6.1 1013.9 0.0000 0.0000
15:46 23.2 13.9 56 234 1.7 4.7 1013.6 0.0000 0.0000
15:56 23.3 14.6 58 236 1.4 6.1 1013.7 0.0000 0.0000
16:06 23.3 14.8 59 240 0.8 2.2 1013.7 0.0000 0.0000
16:16 23.3 14.8 59 216 0.6 2.2 1013.5 0.0000 0.0000
16:26 23.2 14.8 59 221 0.8 3.9 1013.8 0.0000 0.0000
16:37 23.2 15 60 217 1.1 2.8 1013.8 0.0000 0.0000
16:47 23.1 15.2 61 232 0.8 2.8 1013.6 0.0000 0.0000
16:57 22.9 15 61 228 0.8 2.5 1013.7 0.0000 0.0000
17:07 22.9 15 61 228 1.1 3.9 1013.6 0.0000 0.0000
17:17 22.8 14.9 61 222 0.8 2.8 1013.5 0.0000 0.0000
17:27 22.8 15.1 62 223 0.8 2.8 1013.5 0.0000 0.0000
17:37 22.7 15.1 62 225 0.8 2.5 1013.4 0.0000 0.0000
17:47 22.7 15.3 63 232 0.8 3.1 1013.4 0.0000 0.0000
17:57 22.7 15.1 62 223 1.1 3.6 1013.3 0.0000 0.0000
18:07 22.7 15.1 62 240 0.6 2.8 1013.5 0.0000 0.0000
18:18 22.6 15.2 63 225 0.8 3.9 1013.5 0.0000 0.0000
18:27 22.6 15.2 63 225 1.1 2.8 1013.7 0.0000 0.0000
18:37 22.5 15.1 63 225 0.8 2.8 1013.6 0.0000 0.0000
18:48 22.5 15.1 63 226 1.1 2.8 1013.6 0.0000 0.0000
18:58 22.4 15.3 64 225 0.8 1.9 1013.5 0.0000 0.0000
19:07 22.4 15.3 64 237 0.6 1.7 1013.3 0.0000 0.0000
19:17 22.4 15.5 65 229 0.8 2.2 1013.5 0.0000 0.0000
19:28 22.4 15.5 65 235 0.6 2.5 1013.4 0.0000 0.0000
19:38 22.3 15.4 65 225 0.8 2.2 1013.4 0.0000 0.0000
19:47 22.3 15.4 65 231 0.6 1.9 1013.5 0.0000 0.0000
19:58 22.2 15.3 65 218 0.6 1.4 1013.5 0.0000 0.0000
20:08 22.1 15.2 65 220 0.8 2.2 1013.6 0.0000 0.0000
20:18 22.1 15.2 65 229 0.8 3.1 1013.6 0.0000 0.0000
20:28 22 15.1 65 216 0.6 2.8 1013.5 0.0000 0.0000
20:38 21.9 15.3 66 225 0.3 1.4 1013.5 0.0000 0.0000
20:48 21.9 15.3 66 222 0.6 2.8 1013.6 0.0000 0.0000
20:58 21.8 15.2 66 219 0.6 1.7 1013.6 0.0000 0.0000
21:09 21.7 15.1 66 225 0.8 3.1 1013.5 0.0000 0.0000
21:18 21.6 15 66 225 0.6 2.2 1013.8 0.0000 0.0000
21:28 21.4 15 67 216 0.8 2.5 1013.8 0.0000 0.0000
21:38 21.3 14.9 67 225 0.8 2.2 1013.7 0.0000 0.0000
21:49 21.1 15 68 227 0.8 3.3 1013.6 0.0000 0.0000
21:58 21 14.9 68 214 0.8 3.9 1013.8 0.0000 0.0000
22:08 20.9 15 69 221 0.6 2.8 1013.7 0.0000 0.0000
22:19 20.8 14.9 69 225 0.6 1.7 1013.6 0.0000 0.0000
22:29 20.7 14.8 69 225 0.8 3.6 1013.5 0.0000 0.0000
22:38 20.6 14.9 70 213 0.8 1.9 1013.6 0.0000 0.0000
22:49 20.5 15.1 71 213 0.6 2.2 1013.4 0.0000 0.0000
23:10 20.4 15 71 225 0.3 1.4 1013.5 0.0000 0.0000
23:20 20.4 15.2 72 203 0.6 2.8 1013.7 0.0000 0.0000
23:29 20.4 15.6 74 231 0.6 1.1 1013.7 0.0000 0.0000
23:40 20.2 15.6 75 233 0.8 2.5 1013.7 0.0000 0.0000

DAY STATISTIC

2019-08-17
TEMPERATURE
AVERAGE
19.4
HIGH
24.0
13:29
LOW
14.8
02:31
PRESSURE
AVERAGE
1014.8
HIGH
1018.0
00:01
LOW
1013.3
17:57
DEWPOINT
AVERAGE
13.7
HIGH
15.6
23:29
LOW
11.1
02:21
HUMIDITY
AVERAGE
71
HIGH
85
08:14
LOW
54
14:55
WIND SPEED
AVERAGE
0.6
HIGH
1.7
15:46
WIND GUST
AVERAGE
2.0
HIGH
7.5
13:19
WIND DIRECTION
PREVAILING
SW
56%
N
4.3
NE
6.4
E
9.9
SE
5.0
S
5.0
SW
56.0
W
1.4
NW
2.1
PRECIPITATION
RAIN HOUR
0.0
RAIN DAY
0.0
TEMPERATURE (°C)
LOW
14.8
HIGH
24.0
AVERAGE
19.4
PRESSURE (hpa)
LOW
1013.3
HIGH
1018.0
AVERAGE
1014.8
DEVICE